Time;durP1;ratioP1;P1;durP2;ratioP2;P2;SDS_P1;SDS_P2;PMS_P1;PMS_P2;Temp;Humidity;BMP_temperature;BMP_pressure;BME280_temperature;BME280_humidity;BME280_pressure;Samples;Min_cycle;Max_cycle;Signal;HPM_P1;HPM_P2
2023/04/25 00:00:52;;;;;;;5.63;3.87;;;;;;;10.28;53.57;95593.22;4990262;28;20446;-69
2023/04/25 00:03:18;;;;;;;18.53;5.20;;;;;;;10.23;53.61;95590.00;4988975;28;20567;-69
2023/04/25 00:05:43;;;;;;;16.10;4.63;;;;;;;10.33;53.43;95585.94;4989793;28;20492;-69
2023/04/25 00:08:09;;;;;;;6.00;4.20;;;;;;;10.29;53.71;95592.28;4989736;28;20511;-68
2023/04/25 00:10:34;;;;;;;7.00;4.13;;;;;;;10.19;54.12;95588.47;4990062;28;21063;-69
2023/04/25 00:13:02;;;;;;;5.07;3.83;;;;;;;10.28;53.35;95585.34;4989785;28;20192;-69
2023/04/25 00:15:30;;;;;;;13.10;4.37;;;;;;;10.29;53.43;95586.19;4990193;28;20165;-69
2023/04/25 00:17:56;;;;;;;5.13;4.07;;;;;;;10.35;53.28;95581.47;4989762;28;20412;-69
2023/04/25 00:20:23;;;;;;;8.03;4.23;;;;;;;10.45;52.91;95587.03;4989924;28;20495;-70
2023/04/25 00:22:49;;;;;;;12.00;4.20;;;;;;;10.50;52.55;95576.28;4989764;28;20490;-69
2023/04/25 00:25:14;;;;;;;4.73;3.80;;;;;;;10.45;53.37;95578.31;4989885;28;20448;-69
2023/04/25 00:27:41;;;;;;;10.47;4.10;;;;;;;10.41;53.03;95568.94;4988207;28;20427;-69
2023/04/25 00:30:07;;;;;;;4.70;3.73;;;;;;;10.35;52.88;95552.63;4989711;28;20165;-69
2023/04/25 00:32:33;;;;;;;5.20;4.10;;;;;;;10.36;53.53;95556.06;4989732;28;20501;-68
2023/04/25 00:34:58;;;;;;;4.87;3.80;;;;;;;10.34;53.52;95569.25;4990020;28;20435;-69
2023/04/25 00:37:24;;;;;;;7.63;4.33;;;;;;;10.28;53.08;95577.50;4989885;28;20218;-68
2023/04/25 00:39:50;;;;;;;6.13;4.20;;;;;;;10.34;53.62;95576.28;4989709;28;20365;-68
2023/04/25 00:42:16;;;;;;;6.57;4.50;;;;;;;10.31;53.34;95579.94;4989685;28;20204;-70
2023/04/25 00:44:43;;;;;;;4.30;3.90;;;;;;;10.25;53.45;95569.78;4989381;28;20452;-70
2023/04/25 00:47:11;;;;;;;6.00;4.00;;;;;;;10.30;53.93;95575.63;4989615;28;20657;-69
2023/04/25 00:49:36;;;;;;;6.30;4.53;;;;;;;10.26;53.93;95562.75;4989448;28;20803;-69
2023/04/25 00:52:02;;;;;;;5.20;3.83;;;;;;;10.14;54.55;95556.41;4989252;28;20455;-69
2023/04/25 00:54:28;;;;;;;10.60;4.23;;;;;;;10.13;54.39;95552.94;4989502;28;20172;-69
2023/04/25 00:56:53;;;;;;;16.17;4.40;;;;;;;10.24;54.15;95557.56;4988831;28;20330;-69
2023/04/25 00:59:20;;;;;;;5.20;4.67;;;;;;;10.01;55.17;95550.97;4989422;28;20215;-69
2023/04/25 01:01:46;;;;;;;5.77;4.57;;;;;;;10.13;54.58;95539.84;4989450;28;20539;-69
2023/04/25 01:04:11;;;;;;;4.40;3.97;;;;;;;10.17;54.23;95546.59;4990882;28;20455;-67
2023/04/25 01:06:36;;;;;;;6.23;3.83;;;;;;;10.26;54.46;95542.59;4989222;28;20199;-68
2023/04/25 01:09:04;;;;;;;6.20;4.60;;;;;;;10.15;54.46;95544.97;4989132;28;20173;-68
2023/04/25 01:11:29;;;;;;;4.87;4.13;;;;;;;10.30;54.03;95554.66;4989234;28;20173;-68
2023/04/25 01:13:55;;;;;;;6.63;5.13;;;;;;;10.25;54.01;95543.56;4989274;28;20435;-67
2023/04/25 01:16:23;;;;;;;8.80;5.20;;;;;;;10.33;53.84;95543.16;4988722;28;20169;-67
2023/04/25 01:18:51;;;;;;;4.23;3.83;;;;;;;10.29;54.18;95537.22;4988663;28;20169;-67
2023/04/25 01:21:16;;;;;;;6.93;4.77;;;;;;;10.16;53.86;95542.28;4989016;28;20420;-69
2023/04/25 01:23:42;;;;;;;11.93;5.03;;;;;;;10.27;54.06;95536.41;4988569;28;20897;-67
2023/04/25 01:26:11;;;;;;;9.00;4.20;;;;;;;10.23;53.99;95537.53;4988478;28;20213;-69
2023/04/25 01:28:40;;;;;;;8.77;4.23;;;;;;;10.20;54.21;95544.72;4989117;28;20877;-68
2023/04/25 01:31:06;;;;;;;5.53;4.37;;;;;;;10.14;54.45;95545.94;4988318;28;20416;-67
2023/04/25 01:33:32;;;;;;;5.87;5.23;;;;;;;10.03;54.77;95537.81;4988537;28;20453;-67
2023/04/25 01:35:58;;;;;;;8.80;4.70;;;;;;;10.11;54.45;95544.31;4988143;28;20404;-69
2023/04/25 01:38:23;;;;;;;5.73;5.03;;;;;;;10.02;55.37;95544.00;4988551;28;20631;-69
2023/04/25 01:40:50;;;;;;;9.27;4.40;;;;;;;9.98;55.24;95537.22;4988154;28;20211;-69
2023/04/25 01:43:16;;;;;;;5.87;4.30;;;;;;;10.01;54.94;95535.25;4988122;28;20414;-69
2023/04/25 01:45:42;;;;;;;5.23;4.30;;;;;;;10.02;54.76;95528.25;4988226;28;20563;-68
2023/04/25 01:48:12;;;;;;;4.40;4.00;;;;;;;9.91;54.94;95542.78;4988515;28;20169;-68
2023/04/25 01:50:39;;;;;;;5.23;4.27;;;;;;;9.90;55.27;95535.88;4988793;28;20496;-69
2023/04/25 01:53:05;;;;;;;6.93;4.60;;;;;;;9.90;55.22;95535.88;4988281;28;20439;-67
2023/04/25 01:55:31;;;;;;;9.73;4.40;;;;;;;9.67;55.79;95536.28;4988036;28;20412;-67
2023/04/25 01:57:57;;;;;;;6.57;5.33;;;;;;;9.66;55.75;95537.19;4987966;28;20184;-69
2023/04/25 02:00:22;;;;;;;6.20;4.70;;;;;;;9.92;55.39;95533.16;4988012;28;20176;-68
2023/04/25 02:02:50;;;;;;;5.77;4.50;;;;;;;9.74;55.39;95521.91;4986705;28;20555;-69
2023/04/25 02:05:16;;;;;;;4.83;4.17;;;;;;;9.73;55.83;95533.31;4987733;28;20270;-68
2023/04/25 02:07:42;;;;;;;4.73;3.90;;;;;;;9.75;56.09;95523.59;4986541;28;20420;-69
2023/04/25 02:10:07;;;;;;;5.40;4.30;;;;;;;10.00;55.09;95522.25;4987958;28;20926;-69
2023/04/25 02:12:33;;;;;;;7.37;4.30;;;;;;;9.96;55.75;95513.72;4987874;28;20193;-69
2023/04/25 02:14:58;;;;;;;6.50;4.70;;;;;;;10.12;55.48;95496.19;4988011;28;20169;-69
2023/04/25 02:17:24;;;;;;;5.67;4.63;;;;;;;9.87;55.44;95480.16;4986129;28;20238;-70
2023/04/25 02:19:50;;;;;;;9.70;4.83;;;;;;;9.57;56.78;95480.06;4987743;28;20172;-69
2023/04/25 02:22:15;;;;;;;13.10;4.83;;;;;;;9.83;55.20;95489.13;4986546;28;20234;-68
2023/04/25 02:24:41;;;;;;;9.03;4.63;;;;;;;10.00;54.64;95503.91;4987591;28;20197;-69
2023/04/25 02:27:07;;;;;;;5.30;4.73;;;;;;;9.99;55.44;95525.78;4987327;28;20256;-69
2023/04/25 02:29:32;;;;;;;6.80;4.40;;;;;;;9.98;54.98;95535.44;4987661;28;20169;-70
2023/04/25 02:31:58;;;;;;;5.40;4.67;;;;;;;9.92;55.69;95541.00;4987512;28;20504;-68
2023/04/25 02:34:23;;;;;;;7.80;4.40;;;;;;;10.01;55.69;95539.66;4987723;28;20165;-67
2023/04/25 02:36:50;;;;;;;7.43;4.33;;;;;;;9.90;55.81;95535.03;4987641;28;20279;-69
2023/04/25 02:39:16;;;;;;;6.70;4.97;;;;;;;9.84;56.14;95536.19;4991623;28;20634;-69
2023/04/25 02:41:42;;;;;;;7.10;5.37;;;;;;;9.86;56.23;95536.97;4990934;28;20415;-69
2023/04/25 02:44:07;;;;;;;5.00;4.50;;;;;;;9.64;57.42;95531.22;4988714;28;20436;-68
2023/04/25 02:46:33;;;;;;;6.70;5.30;;;;;;;9.76;57.29;95522.69;4987948;28;20196;-68
2023/04/25 02:49:00;;;;;;;11.67;5.27;;;;;;;9.85;57.10;95529.16;4987669;28;20268;-68
2023/04/25 02:51:26;;;;;;;6.93;4.70;;;;;;;9.42;59.07;95523.63;4987793;28;20179;-67
2023/04/25 02:53:51;;;;;;;5.83;5.33;;;;;;;9.41;58.94;95512.31;4987642;28;20836;-68
2023/04/25 02:56:17;;;;;;;6.20;5.60;;;;;;;9.23;59.32;95514.13;4987322;28;20219;-69
2023/04/25 02:58:42;;;;;;;5.63;5.03;;;;;;;9.57;58.33;95514.09;4987584;28;20176;-68
2023/04/25 03:01:07;;;;;;;6.47;5.10;;;;;;;9.81;57.76;95514.56;4987407;28;20169;-67
2023/04/25 03:03:33;;;;;;;8.83;4.70;;;;;;;9.83;57.35;95517.97;4987546;28;20243;-68
2023/04/25 03:05:58;;;;;;;11.37;6.10;;;;;;;9.85;57.57;95516.06;4987545;28;20203;-68
2023/04/25 03:08:25;;;;;;;8.63;5.27;;;;;;;9.93;57.48;95519.97;4987786;28;20169;-67
2023/04/25 03:10:51;;;;;;;8.80;5.20;;;;;;;9.83;57.85;95512.72;4987687;28;20184;-67
2023/04/25 03:13:17;;;;;;;5.93;4.70;;;;;;;9.76;58.54;95512.19;4987861;28;20491;-68
2023/04/25 03:15:43;;;;;;;7.00;5.50;;;;;;;9.83;58.26;95510.09;4987690;28;20782;-68
2023/04/25 03:18:08;;;;;;;6.77;5.37;;;;;;;9.84;58.24;95510.00;4987294;28;20187;-68
2023/04/25 03:20:34;;;;;;;5.30;4.80;;;;;;;9.91;58.16;95511.34;4987678;28;20483;-67
2023/04/25 03:22:59;;;;;;;4.83;4.30;;;;;;;9.77;58.47;95508.63;4987574;28;20786;-68
2023/04/25 03:25:25;;;;;;;4.80;4.30;;;;;;;9.77;58.33;95513.88;4987430;28;20205;-70
2023/04/25 03:27:50;;;;;;;5.53;4.33;;;;;;;9.79;58.77;95512.03;4987232;28;20597;-67
2023/04/25 03:30:16;;;;;;;8.37;4.60;;;;;;;9.84;58.39;95517.00;4987476;28;20204;-68
2023/04/25 03:32:41;;;;;;;5.70;4.30;;;;;;;9.77;58.67;95508.63;4967939;28;20195;-68
2023/04/25 03:35:07;;;;;;;5.70;5.20;;;;;;;9.77;59.31;95508.63;4967938;28;20536;-68
2023/04/25 03:37:33;;;;;;;5.43;4.43;;;;;;;9.57;60.30;95507.13;4967654;28;20184;-67
2023/04/25 03:39:58;;;;;;;4.90;4.33;;;;;;;9.77;60.22;95500.78;4966442;28;21079;-68
2023/04/25 03:42:23;;;;;;;5.53;4.90;;;;;;;9.64;61.27;95500.63;4968801;28;20272;-68
2023/04/25 03:44:49;;;;;;;7.03;4.77;;;;;;;9.78;60.90;95497.25;4971361;28;20240;-67
2023/04/25 03:47:15;;;;;;;8.53;5.23;;;;;;;9.69;60.35;95500.38;4970754;28;20284;-68
2023/04/25 03:49:41;;;;;;;14.40;5.83;;;;;;;9.76;60.57;95504.34;4971329;28;20982;-69
2023/04/25 03:52:07;;;;;;;13.00;5.70;;;;;;;9.83;59.77;95502.22;4970997;28;20551;-67
2023/04/25 03:54:32;;;;;;;31.77;6.93;;;;;;;9.77;59.50;95500.78;4970883;28;20405;-67
2023/04/25 03:56:58;;;;;;;10.33;5.87;;;;;;;9.72;60.26;95508.88;4970490;28;20444;-68
2023/04/25 03:59:24;;;;;;;9.10;5.60;;;;;;;9.61;61.61;95506.00;4970825;28;20593;-68
2023/04/25 04:01:50;;;;;;;14.50;6.20;;;;;;;9.67;61.51;95507.47;4970844;28;20173;-67
2023/04/25 04:04:15;;;;;;;6.50;5.50;;;;;;;9.63;60.91;95503.31;4970720;28;20939;-67
2023/04/25 04:06:42;;;;;;;14.13;6.07;;;;;;;9.62;61.19;95496.41;4970543;28;20284;-68
2023/04/25 04:09:10;;;;;;;11.07;5.10;;;;;;;9.64;60.56;95494.53;4970854;28;20220;-69
2023/04/25 04:11:38;;;;;;;12.50;5.97;;;;;;;9.69;60.05;95495.97;4970767;28;20413;-68
2023/04/25 04:14:05;;;;;;;10.07;5.77;;;;;;;9.61;60.46;95505.16;4970503;28;20439;-69
2023/04/25 04:16:30;;;;;;;17.93;4.80;;;;;;;9.63;60.32;95498.06;4970285;28;20472;-68
2023/04/25 04:18:56;;;;;;;10.97;4.87;;;;;;;9.61;59.96;95499.94;4970513;28;20413;-69
2023/04/25 04:21:21;;;;;;;9.13;4.77;;;;;;;9.73;59.72;95489.63;4970465;28;20177;-68
2023/04/25 04:23:47;;;;;;;7.10;5.73;;;;;;;9.60;60.06;95498.25;4970609;28;20197;-69
2023/04/25 04:26:15;;;;;;;7.83;4.93;;;;;;;9.61;60.15;95498.16;4970045;28;20209;-68
2023/04/25 04:28:40;;;;;;;7.80;4.90;;;;;;;9.63;60.06;95501.53;4970583;28;21389;-67
2023/04/25 04:31:07;;;;;;;14.70;5.10;;;;;;;9.64;60.42;95499.78;4976868;28;20467;-68
2023/04/25 04:33:32;;;;;;;18.03;5.93;;;;;;;9.67;60.16;95508.31;4989518;28;20205;-67
2023/04/25 04:35:58;;;;;;;8.60;4.77;;;;;;;9.63;59.97;95505.94;4989148;28;20966;-67
2023/04/25 04:38:25;;;;;;;9.33;5.10;;;;;;;9.62;60.02;95512.13;4989319;28;20173;-68
2023/04/25 04:40:52;;;;;;;13.57;5.63;;;;;;;9.60;60.08;95503.50;4990286;28;20420;-67
2023/04/25 04:43:18;;;;;;;11.00;5.23;;;;;;;9.53;60.59;95506.44;4985373;28;20435;-68
2023/04/25 04:45:44;;;;;;;14.00;5.13;;;;;;;9.62;59.86;95509.50;4997608;28;20480;-68
2023/04/25 04:48:11;;;;;;;8.20;4.67;;;;;;;9.61;60.25;95516.47;4988686;28;20470;-67
2023/04/25 04:50:37;;;;;;;17.03;5.10;;;;;;;9.62;59.64;95519.97;4988473;28;20169;-67
2023/04/25 04:53:04;;;;;;;10.43;5.37;;;;;;;9.61;60.29;95516.47;4989262;28;20432;-68
2023/04/25 04:55:29;;;;;;;7.43;5.00;;;;;;;9.61;60.15;95519.09;4988100;28;20173;-68
2023/04/25 04:57:55;;;;;;;9.23;5.90;;;;;;;9.58;60.30;95524.50;4989333;28;20404;-68
2023/04/25 05:00:21;;;;;;;17.10;5.33;;;;;;;9.63;60.54;95529.50;4989215;28;20173;-66
2023/04/25 05:02:47;;;;;;;10.37;4.33;;;;;;;9.63;60.77;95524.25;4986283;28;20201;-68
2023/04/25 05:05:12;;;;;;;23.53;4.77;;;;;;;9.56;61.00;95525.53;4988706;28;20459;-70
2023/04/25 05:07:38;;;;;;;6.63;4.60;;;;;;;9.55;60.66;95529.94;4988528;28;20173;-68
2023/04/25 05:10:03;;;;;;;23.67;6.10;;;;;;;9.52;61.30;95523.09;4983016;28;20180;-67
2023/04/25 05:12:30;;;;;;;25.30;4.67;;;;;;;9.51;61.85;95525.78;4985311;28;20213;-69
2023/04/25 05:14:55;;;;;;;18.13;4.30;;;;;;;9.48;62.32;95524.16;4988347;28;20173;-68
2023/04/25 05:17:21;;;;;;;10.73;4.67;;;;;;;9.53;62.25;95518.69;4988433;28;20774;-67
2023/04/25 05:19:46;;;;;;;7.97;4.70;;;;;;;9.50;62.58;95524.09;4988957;28;20183;-68
2023/04/25 05:22:11;;;;;;;10.03;3.87;;;;;;;9.50;62.39;95524.94;4988600;28;20205;-68
2023/04/25 05:24:37;;;;;;;6.80;5.40;;;;;;;9.46;63.32;95519.94;4983629;28;20200;-69
2023/04/25 05:27:03;;;;;;;9.60;4.30;;;;;;;9.59;62.04;95525.34;4968629;28;20725;-68
2023/04/25 05:29:28;;;;;;;15.07;4.73;;;;;;;9.58;62.74;95515.81;4970123;28;20214;-69
2023/04/25 05:31:53;;;;;;;7.40;4.83;;;;;;;9.53;62.49;95516.91;4986992;28;20169;-68
2023/04/25 05:34:19;;;;;;;15.17;4.93;;;;;;;9.21;64.08;95516.03;4987652;28;20821;-68
2023/04/25 05:36:48;;;;;;;7.63;4.50;;;;;;;9.47;63.10;95514.63;4987282;28;20623;-69
2023/04/25 05:39:14;;;;;;;8.30;5.47;;;;;;;9.56;62.40;95515.06;4987472;28;20172;-70
2023/04/25 05:41:39;;;;;;;11.00;4.70;;;;;;;9.59;62.56;95522.72;4978918;28;20506;-68
2023/04/25 05:44:05;;;;;;;7.80;5.40;;;;;;;9.79;62.18;95526.91;4980869;28;20447;-70
2023/04/25 05:46:30;;;;;;;15.73;6.07;;;;;;;9.83;61.26;95534.50;4982148;28;20215;-67
2023/04/25 05:48:56;;;;;;;9.97;4.90;;;;;;;9.70;61.61;95530.88;4975191;28;20219;-67
2023/04/25 05:51:21;;;;;;;22.20;8.00;;;;;;;9.84;61.37;95533.56;4976690;28;20630;-69
2023/04/25 05:53:47;;;;;;;18.93;5.10;;;;;;;9.85;61.44;95527.41;4983613;28;20534;-67
2023/04/25 05:56:13;;;;;;;13.30;5.10;;;;;;;9.86;60.91;95541.38;4985245;28;20173;-69
2023/04/25 05:58:38;;;;;;;19.60;5.27;;;;;;;9.90;61.34;95533.25;4981008;28;20184;-68
2023/04/25 06:01:04;;;;;;;8.37;5.50;;;;;;;9.96;60.49;95534.66;4983701;28;20183;-67
2023/04/25 06:03:30;;;;;;;14.57;5.27;;;;;;;9.95;60.51;95540.84;4978355;28;20626;-69
2023/04/25 06:05:55;;;;;;;24.10;7.20;;;;;;;10.00;60.92;95532.75;4976547;28;20467;-69
2023/04/25 06:08:21;;;;;;;12.03;5.60;;;;;;;10.11;60.21;95530.34;4977745;28;21120;-67
2023/04/25 06:10:46;;;;;;;8.13;5.10;;;;;;;10.15;59.48;95534.50;4980899;28;20184;-68
2023/04/25 06:13:11;;;;;;;12.43;5.67;;;;;;;10.28;59.28;95532.03;4985347;28;20268;-69
2023/04/25 06:15:37;;;;;;;14.83;7.00;;;;;;;10.86;72.18;95522.59;4967878;28;20617;-68
2023/04/25 06:18:02;;;;;;;8.60;4.60;;;;;;;12.35;70.07;95519.50;4966189;28;20176;-68
2023/04/25 06:20:28;;;;;;;46.10;7.47;;;;;;;13.23;69.07;95511.03;4976957;28;20658;-68
2023/04/25 06:22:54;;;;;;;17.60;6.73;;;;;;;12.49;53.78;95519.44;4983228;28;20205;-69
2023/04/25 06:25:20;;;;;;;62.47;12.60;;;;;;;12.40;53.28;95514.81;4982457;28;20263;-67
2023/04/25 06:27:45;;;;;;;21.10;5.47;;;;;;;12.38;52.29;95514.06;4980218;28;20435;-67
2023/04/25 06:30:12;;;;;;;12.97;5.23;;;;;;;12.34;53.12;95519.63;4982915;28;20536;-66
2023/04/25 06:32:38;;;;;;;5.53;3.73;;;;;;;12.44;51.81;95505.75;4982833;28;20640;-68
2023/04/25 06:35:04;;;;;;;7.10;4.67;;;;;;;12.41;52.19;95505.97;4977753;28;20436;-67
2023/04/25 06:37:30;;;;;;;6.37;3.93;;;;;;;13.03;50.87;95497.44;4982353;28;20464;-67
2023/04/25 06:39:55;;;;;;;6.07;3.63;;;;;;;13.44;49.18;95498.19;4982352;28;20472;-67
2023/04/25 06:42:20;;;;;;;25.70;5.97;;;;;;;13.61;48.71;95486.50;4979051;28;20208;-69
2023/04/25 06:44:46;;;;;;;14.23;4.60;;;;;;;13.85;47.58;95487.38;4978623;28;20176;-67
2023/04/25 06:47:11;;;;;;;5.97;3.57;;;;;;;13.92;48.05;95485.16;4984394;28;20972;-68
2023/04/25 06:49:37;;;;;;;3.63;3.13;;;;;;;14.38;46.35;95487.91;4984846;28;20553;-69
2023/04/25 06:52:02;;;;;;;8.60;4.10;;;;;;;14.75;45.01;95487.84;4978212;28;20634;-66
2023/04/25 06:54:29;;;;;;;26.53;6.03;;;;;;;14.97;44.19;95488.88;4983314;28;20669;-67
2023/04/25 06:56:55;;;;;;;13.60;4.97;;;;;;;15.12;44.11;95489.50;4976462;28;20173;-68
2023/04/25 06:59:21;;;;;;;8.87;3.50;;;;;;;15.23;43.75;95489.53;4980298;28;20487;-67
2023/04/25 07:01:47;;;;;;;5.47;2.83;;;;;;;14.92;43.66;95483.94;4979159;28;20446;-67
2023/04/25 07:04:12;;;;;;;9.13;3.97;;;;;;;14.80;44.07;95487.50;4985047;28;20455;-67
2023/04/25 07:06:42;;;;;;;5.93;3.70;;;;;;;15.54;43.23;95477.41;4983761;28;20204;-67
2023/04/25 07:09:09;;;;;;;7.13;3.77;;;;;;;15.37;43.26;95485.81;4985767;28;20185;-67
2023/04/25 07:11:35;;;;;;;6.90;3.60;;;;;;;14.75;44.00;95484.38;4983353;28;20428;-66
2023/04/25 07:14:01;;;;;;;6.03;3.70;;;;;;;14.23;45.41;95485.56;4982275;28;20478;-66
2023/04/25 07:16:26;;;;;;;7.73;3.40;;;;;;;13.77;46.66;95484.44;4977570;28;20451;-67
2023/04/25 07:18:51;;;;;;;6.60;3.53;;;;;;;13.43;47.85;95488.63;4984987;28;20629;-66
2023/04/25 07:21:17;;;;;;;7.13;3.80;;;;;;;13.23;48.65;95488.19;4986355;28;20181;-68
2023/04/25 07:23:42;;;;;;;3.80;3.30;;;;;;;13.14;48.26;95491.44;4986938;28;20332;-67
2023/04/25 07:26:08;;;;;;;12.33;4.30;;;;;;;12.94;49.05;95484.88;4986900;28;20252;-68
2023/04/25 07:28:33;;;;;;;10.13;4.43;;;;;;;12.91;48.44;95488.56;4990826;28;20187;-67
2023/04/25 07:30:58;;;;;;;7.73;3.67;;;;;;;12.82;49.77;95491.00;4987950;28;20582;-67
2023/04/25 07:33:24;;;;;;;8.77;3.50;;;;;;;12.77;49.10;95496.56;4981037;28;20212;-68
2023/04/25 07:35:49;;;;;;;20.60;4.77;;;;;;;12.56;49.44;95490.94;4984918;28;20173;-68
2023/04/25 07:38:15;;;;;;;6.47;4.20;;;;;;;12.69;49.34;95489.19;4986033;28;20239;-67
2023/04/25 07:40:41;;;;;;;12.73;4.30;;;;;;;12.63;49.23;95489.59;4986567;28;20184;-67
2023/04/25 07:43:06;;;;;;;32.13;5.67;;;;;;;12.75;50.31;95495.81;4987296;28;20258;-68
2023/04/25 07:45:32;;;;;;;48.27;8.20;;;;;;;12.58;50.18;95486.41;4989311;28;20658;-68
2023/04/25 07:47:57;;;;;;;9.00;4.07;;;;;;;12.55;50.59;95497.16;4989743;28;20197;-68
2023/04/25 07:50:23;;;;;;;5.97;3.80;;;;;;;12.49;50.65;95503.66;4993236;28;21016;-67
2023/04/25 07:52:48;;;;;;;8.27;4.53;;;;;;;12.66;51.48;95493.81;5004523;28;20207;-68
2023/04/25 07:55:14;;;;;;;9.83;4.20;;;;;;;12.66;51.37;95505.19;5006391;28;20169;-67
2023/04/25 07:57:42;;;;;;;8.00;4.80;;;;;;;12.68;50.24;95510.34;4989305;28;20173;-68
2023/04/25 08:00:11;;;;;;;22.43;5.80;;;;;;;12.66;50.03;95502.56;4989713;28;20169;-68
2023/04/25 08:02:37;;;;;;;7.20;5.60;;;;;;;12.58;49.93;95504.00;4989870;28;20436;-67
2023/04/25 08:05:11;;;;;;;45.57;8.40;;;;;;;12.55;50.34;95502.41;4990530;28;20534;-68
2023/04/25 08:07:37;;;;;;;9.90;5.90;;;;;;;12.55;49.79;95501.59;5008834;28;20399;-68
2023/04/25 08:10:03;;;;;;;15.30;5.60;;;;;;;12.54;49.49;95510.41;5008895;28;20924;-68
2023/04/25 08:12:28;;;;;;;12.73;5.50;;;;;;;12.58;50.22;95506.63;5008791;28;20465;-68
2023/04/25 08:14:54;;;;;;;20.17;6.20;;;;;;;12.67;50.22;95503.41;5008993;28;20164;-68
2023/04/25 08:17:19;;;;;;;35.27;7.30;;;;;;;12.66;49.58;95505.19;5008626;28;20630;-68
2023/04/25 08:19:45;;;;;;;19.70;4.90;;;;;;;12.73;49.14;95500.34;5008759;28;20183;-67
2023/04/25 08:22:10;;;;;;;13.57;3.83;;;;;;;12.55;46.98;95509.47;5008700;28;20676;-68
2023/04/25 08:24:36;;;;;;;12.73;5.00;;;;;;;12.79;47.25;95507.00;5008751;28;20894;-67
2023/04/25 08:27:02;;;;;;;14.57;4.93;;;;;;;12.76;47.38;95507.22;5008273;28;20204;-67
2023/04/25 08:29:28;;;;;;;15.43;5.43;;;;;;;12.94;48.51;95519.13;4999807;28;20205;-67
2023/04/25 08:31:53;;;;;;;22.90;5.27;;;;;;;12.91;47.90;95520.19;4988919;28;20416;-67
2023/04/25 08:34:20;;;;;;;20.83;5.10;;;;;;;12.92;48.02;95526.28;4989149;28;20443;-68
2023/04/25 08:36:45;;;;;;;7.80;4.00;;;;;;;12.69;47.72;95520.78;4989171;28;20169;-67
2023/04/25 08:39:10;;;;;;;10.40;3.90;;;;;;;12.47;48.58;95520.50;4988839;28;20909;-67
2023/04/25 08:41:40;;;;;;;65.20;8.93;;;;;;;12.35;49.74;95527.41;4989126;28;20184;-67
2023/04/25 08:44:09;;;;;;;42.00;7.07;;;;;;;12.44;49.57;95525.97;4988855;28;20203;-67
2023/04/25 08:46:39;;;;;;;44.13;7.10;;;;;;;12.50;50.38;95534.31;4988446;28;20558;-67
2023/04/25 08:49:04;;;;;;;21.53;7.03;;;;;;;12.76;49.35;95530.91;4988409;28;20495;-68
2023/04/25 08:51:35;;;;;;;16.97;4.97;;;;;;;12.42;50.32;95541.00;4988982;28;20551;-68
2023/04/25 08:54:11;;;;;;;8.23;4.27;;;;;;;12.58;49.53;95536.44;4988368;28;20203;-70
2023/04/25 08:56:43;;;;;;;8.50;3.60;;;;;;;12.41;50.38;95532.28;4988474;28;20925;-66
2023/04/25 08:59:09;;;;;;;20.50;5.00;;;;;;;12.37;50.52;95546.56;4988670;28;20784;-68
2023/04/25 09:01:35;;;;;;;18.30;4.87;;;;;;;12.41;50.78;95534.06;4988595;28;20451;-68
2023/04/25 09:04:01;;;;;;;5.07;3.80;;;;;;;12.46;49.48;95542.50;4988534;28;20874;-68
2023/04/25 09:06:28;;;;;;;3.60;3.17;;;;;;;12.43;49.82;95540.91;4988228;28;20543;-68
2023/04/25 09:08:54;;;;;;;5.90;3.73;;;;;;;12.45;49.59;95548.72;4988129;28;20266;-68
2023/04/25 09:11:20;;;;;;;8.90;3.80;;;;;;;12.53;49.94;95542.94;4988291;28;20473;-68
2023/04/25 09:13:45;;;;;;;6.80;4.47;;;;;;;12.56;49.67;95548.00;4988191;28;20200;-68
2023/04/25 09:16:11;;;;;;;10.50;4.90;;;;;;;12.77;50.48;95554.47;4988131;28;20171;-67
2023/04/25 09:18:37;;;;;;;26.50;5.40;;;;;;;12.75;50.17;95550.28;4988384;28;20173;-68
2023/04/25 09:21:11;;;;;;;10.80;4.77;;;;;;;12.76;49.84;95546.72;4988381;28;20230;-69
2023/04/25 09:23:47;;;;;;;17.40;4.70;;;;;;;12.75;49.88;95545.84;4989067;28;20797;-69
2023/04/25 09:26:18;;;;;;;8.80;3.57;;;;;;;12.80;48.80;95549.00;4988237;28;20609;-68
2023/04/25 09:28:44;;;;;;;7.67;3.37;;;;;;;12.86;48.85;95555.69;4988337;28;20412;-69
2023/04/25 09:31:20;;;;;;;4.17;3.73;;;;;;;12.87;48.42;95559.97;4988585;28;20405;-70
2023/04/25 09:33:46;;;;;;;3.57;3.17;;;;;;;12.92;47.58;95553.47;4995005;28;20212;-68
2023/04/25 09:36:11;;;;;;;5.43;2.87;;;;;;;13.03;47.73;95549.28;4987955;28;20893;-68
2023/04/25 09:38:45;;;;;;;7.33;3.43;;;;;;;13.01;47.19;95551.16;4988013;28;20307;-68
2023/04/25 09:41:11;;;;;;;9.00;4.17;;;;;;;13.07;47.21;95562.13;4988264;28;20487;-66
2023/04/25 09:43:38;;;;;;;5.40;3.73;;;;;;;12.98;48.88;95577.72;4988864;28;20435;-67
2023/04/25 09:46:08;;;;;;;14.90;4.40;;;;;;;12.68;51.92;95586.69;4987490;28;20537;-66
2023/04/25 09:48:34;;;;;;;7.77;3.70;;;;;;;12.48;52.93;95601.13;4988251;28;20432;-68
2023/04/25 09:51:10;;;;;;;13.03;3.87;;;;;;;12.25;54.35;95611.31;4986847;28;20997;-66
2023/04/25 09:53:38;;;;;;;11.00;4.50;;;;;;;12.01;56.78;95626.88;4988408;28;20188;-66
2023/04/25 09:56:06;;;;;;;10.63;3.47;;;;;;;11.73;57.48;95630.31;4986670;28;20444;-66
2023/04/25 09:58:32;;;;;;;13.90;3.73;;;;;;;11.65;57.75;95643.91;4986670;28;20438;-66
2023/04/25 10:01:01;;;;;;;6.37;3.80;;;;;;;11.51;59.78;95643.06;4985466;28;20744;-69
2023/04/25 10:03:27;;;;;;;5.50;3.97;;;;;;;11.29;61.20;95648.72;4988360;28;20444;-67
2023/04/25 10:05:54;;;;;;;18.20;4.50;;;;;;;11.15;60.17;95655.66;4984627;28;20471;-69
2023/04/25 10:08:20;;;;;;;15.33;4.80;;;;;;;10.79;60.95;95654.19;4986720;28;20454;-68
2023/04/25 10:10:48;;;;;;;5.53;3.00;;;;;;;10.83;62.21;95649.59;4985455;28;20521;-67
2023/04/25 10:13:14;;;;;;;13.77;3.70;;;;;;;10.65;63.33;95650.66;4987149;28;20435;-68
2023/04/25 10:15:41;;;;;;;5.80;3.40;;;;;;;10.74;62.25;95655.38;4987114;28;20511;-67
2023/04/25 10:18:07;;;;;;;10.50;3.33;;;;;;;10.77;62.79;95648.19;4983693;28;20774;-69
2023/04/25 10:20:32;;;;;;;3.73;3.10;;;;;;;10.74;62.38;95658.00;4987471;28;20499;-67
2023/04/25 10:23:11;;;;;;;6.10;4.30;;;;;;;10.81;62.46;95654.09;4987200;28;20440;-67
2023/04/25 10:25:36;;;;;;;6.77;3.97;;;;;;;10.86;63.39;95656.47;4987359;28;20210;-67
2023/04/25 10:28:03;;;;;;;26.83;6.47;;;;;;;10.90;62.17;95656.19;4986822;28;20898;-67
2023/04/25 10:30:29;;;;;;;4.47;3.73;;;;;;;10.69;61.87;95662.66;4986053;28;20188;-67
2023/04/25 10:32:55;;;;;;;21.10;5.17;;;;;;;10.79;63.52;95654.19;4987293;28;20464;-68
2023/04/25 10:35:27;;;;;;;7.20;3.60;;;;;;;10.71;63.93;95659.03;4988805;28;20777;-68
2023/04/25 10:38:14;;;;;;;4.37;3.23;;;;;;;10.82;61.95;95663.69;4988640;28;20426;-67
2023/04/25 10:40:39;;;;;;;14.10;3.60;;;;;;;10.63;60.05;95669.13;4988720;28;20482;-66
2023/04/25 10:43:33;;;;;;;7.90;2.83;;;;;;;10.74;60.75;95671.97;4986440;28;20456;-67
2023/04/25 10:46:12;;;;;;;21.43;4.70;;;;;;;10.56;61.69;95673.84;4980645;28;20232;-66
2023/04/25 10:48:43;;;;;;;8.33;3.50;;;;;;;10.68;61.78;95668.88;4988297;28;20503;-67
2023/04/25 10:51:09;;;;;;;5.33;3.40;;;;;;;10.76;63.35;95677.97;4987794;28;20418;-68
2023/04/25 10:53:35;;;;;;;35.50;6.80;;;;;;;10.80;61.48;95682.13;4989527;28;20953;-67
2023/04/25 10:56:09;;;;;;;14.57;5.37;;;;;;;10.91;61.86;95688.53;4990392;28;20420;-68
2023/04/25 10:58:34;;;;;;;13.60;4.90;;;;;;;10.86;61.45;95682.72;4990665;28;20172;-68
2023/04/25 11:01:01;;;;;;;3.80;3.50;;;;;;;10.86;62.14;95690.59;4990593;28;20428;-68
2023/04/25 11:03:27;;;;;;;5.83;3.90;;;;;;;10.99;61.98;95689.81;4986092;28;20229;-67
2023/04/25 11:05:53;;;;;;;9.00;2.90;;;;;;;10.94;61.09;95688.38;4982343;28;20467;-67
2023/04/25 11:08:34;;;;;;;4.63;2.40;;;;;;;10.88;58.79;95684.31;4990913;28;20206;-67
2023/04/25 11:11:00;;;;;;;12.57;2.60;;;;;;;10.97;58.70;95683.78;4990843;28;20806;-66
2023/04/25 11:13:30;;;;;;;6.63;2.60;;;;;;;11.01;58.13;95687.94;4989542;28;20493;-67
2023/04/25 11:15:55;;;;;;;8.37;2.53;;;;;;;11.18;57.20;95684.34;4977477;28;20552;-67
2023/04/25 11:18:20;;;;;;;4.87;2.00;;;;;;;11.34;55.88;95686.06;4989400;28;20448;-65
2023/04/25 11:20:48;;;;;;;10.73;2.90;;;;;;;11.36;56.52;95689.44;4988844;28;20291;-67
2023/04/25 11:23:15;;;;;;;6.63;2.13;;;;;;;11.34;54.93;95692.19;4987362;28;20908;-68
2023/04/25 11:25:40;;;;;;;15.60;2.27;;;;;;;11.06;57.30;95694.72;4989402;28;20467;-66
2023/04/25 11:28:06;;;;;;;14.80;3.07;;;;;;;11.22;56.51;95693.75;4989255;28;20439;-68
2023/04/25 11:30:31;;;;;;;7.43;2.33;;;;;;;11.12;56.04;95692.56;4990079;28;20176;-67